createdAt,value
2017-09-16T00:00:13.061Z,99.90
2017-09-16T00:02:40.655Z,99.90
2017-09-16T00:05:08.289Z,99.90
2017-09-16T00:07:35.868Z,99.90
2017-09-16T00:10:04.415Z,99.90
2017-09-16T00:12:31.927Z,99.90
2017-09-16T00:14:59.446Z,99.90
2017-09-16T00:17:27.171Z,99.90
2017-09-16T00:19:54.680Z,99.90
2017-09-16T00:22:22.209Z,99.90
2017-09-16T00:24:50.058Z,99.90
2017-09-16T00:27:17.579Z,99.90
2017-09-16T00:29:45.846Z,99.90
2017-09-16T00:32:14.505Z,99.90
2017-09-16T00:34:42.051Z,99.90
2017-09-16T00:37:09.555Z,99.90
2017-09-16T00:39:37.174Z,99.90
2017-09-16T00:42:04.687Z,99.90
2017-09-16T00:44:32.198Z,99.90
2017-09-16T00:47:00.798Z,99.90
2017-09-16T00:49:28.364Z,99.90
2017-09-16T00:51:55.871Z,99.90
2017-09-16T00:54:23.733Z,99.90
2017-09-16T00:56:51.242Z,99.90
2017-09-16T00:59:18.858Z,99.90
2017-09-16T01:01:46.555Z,99.90
2017-09-16T01:04:14.055Z,99.90
2017-09-16T01:06:41.724Z,99.90
2017-09-16T01:09:09.274Z,99.90
2017-09-16T01:11:37.561Z,99.90
2017-09-16T01:14:05.328Z,99.90
2017-09-16T01:16:32.898Z,99.90
2017-09-16T01:19:00.402Z,99.90
2017-09-16T01:21:27.903Z,99.90
2017-09-16T01:23:55.475Z,99.90
2017-09-16T01:26:22.990Z,99.90
2017-09-16T01:28:50.501Z,99.90
2017-09-16T01:31:18.353Z,99.90
2017-09-16T01:33:45.864Z,99.90
2017-09-16T01:36:13.363Z,99.90
2017-09-16T01:38:40.944Z,99.90
2017-09-16T01:41:08.510Z,99.90
2017-09-16T01:43:36.055Z,99.90
2017-09-16T01:46:03.627Z,99.90
2017-09-16T01:48:31.139Z,99.90
2017-09-16T01:50:58.684Z,99.90
2017-09-16T01:53:26.674Z,99.90
2017-09-16T01:55:54.182Z,99.90
2017-09-16T01:58:21.706Z,99.90
2017-09-16T02:00:49.364Z,99.90
2017-09-16T02:03:17.687Z,99.90
2017-09-16T02:05:45.555Z,99.90
2017-09-16T02:08:13.334Z,99.90
2017-09-16T02:10:40.878Z,99.90
2017-09-16T02:13:08.382Z,99.90
2017-09-16T02:15:35.947Z,99.90
2017-09-16T02:18:04.228Z,99.90
2017-09-16T02:20:31.730Z,99.90
2017-09-16T02:22:59.583Z,99.90
2017-09-16T02:25:27.148Z,99.90
2017-09-16T02:27:55.551Z,99.90
2017-09-16T02:30:23.280Z,99.90
2017-09-16T02:32:50.870Z,99.90
2017-09-16T02:35:18.375Z,99.90
2017-09-16T02:37:46.936Z,99.90
2017-09-16T02:40:14.535Z,99.90
2017-09-16T02:42:42.041Z,99.90
2017-09-16T02:45:10.183Z,99.90
2017-09-16T02:47:37.691Z,99.90
2017-09-16T02:50:05.825Z,99.90
2017-09-16T02:52:33.806Z,99.90
2017-09-16T02:55:01.566Z,99.90
2017-09-16T02:57:29.070Z,99.90
2017-09-16T02:59:57.450Z,99.90
2017-09-16T03:02:24.955Z,99.90
2017-09-16T03:04:52.481Z,99.90
2017-09-16T03:07:20.518Z,99.90
2017-09-16T03:09:48.084Z,99.90
2017-09-16T03:12:15.627Z,99.90
2017-09-16T03:14:43.406Z,99.90
2017-09-16T03:17:11.072Z,99.90
2017-09-16T03:19:38.624Z,99.90
2017-09-16T03:22:06.196Z,99.90
2017-09-16T03:24:33.706Z,99.90
2017-09-16T03:27:01.211Z,99.90
2017-09-16T03:29:30.259Z,99.90
2017-09-16T03:31:57.758Z,99.90
2017-09-16T03:34:25.263Z,99.90
2017-09-16T03:36:53.373Z,99.90
2017-09-16T03:39:20.935Z,99.90
2017-09-16T03:41:48.436Z,99.90
2017-09-16T03:44:17.139Z,99.90
2017-09-16T03:46:44.776Z,99.90
2017-09-16T03:49:13.043Z,99.90
2017-09-16T03:51:41.605Z,99.90
2017-09-16T03:54:09.103Z,99.90
2017-09-16T03:56:36.618Z,99.90
2017-09-16T03:59:04.544Z,99.90
2017-09-16T04:15:02.070Z,99.90
2017-09-16T04:17:29.683Z,99.90
2017-09-16T04:19:57.191Z,99.90
2017-09-16T04:22:24.730Z,99.90
2017-09-16T04:24:52.840Z,99.90
2017-09-16T04:27:20.367Z,99.90
2017-09-16T04:29:48.309Z,99.90
2017-09-16T04:32:15.818Z,99.90
2017-09-16T04:34:43.319Z,99.90
2017-09-16T04:37:11.343Z,99.90
2017-09-16T04:39:39.980Z,99.90
2017-09-16T04:42:07.483Z,99.90
2017-09-16T04:44:35.870Z,99.90
2017-09-16T04:47:03.536Z,99.90
2017-09-16T04:49:31.111Z,99.90
2017-09-16T04:51:58.682Z,99.90
2017-09-16T04:54:26.182Z,99.90
2017-09-16T04:56:53.687Z,99.90
2017-09-16T04:59:21.595Z,99.90
2017-09-16T05:01:49.091Z,99.90
2017-09-16T05:04:16.804Z,99.90
2017-09-16T05:06:44.362Z,99.90
2017-09-16T05:09:11.885Z,99.90
2017-09-16T05:11:39.389Z,99.90
2017-09-16T05:14:06.966Z,99.90
2017-09-16T05:16:34.464Z,99.90
2017-09-16T05:19:01.961Z,99.90
2017-09-16T05:21:29.534Z,99.90
2017-09-16T05:23:57.049Z,99.90
2017-09-16T05:26:24.595Z,99.90
2017-09-16T05:28:52.399Z,99.90
2017-09-16T05:31:19.983Z,99.90
2017-09-16T05:33:47.528Z,99.90
2017-09-16T05:36:15.130Z,99.90
2017-09-16T05:38:42.703Z,99.90
2017-09-16T05:41:10.215Z,99.90
2017-09-16T05:43:38.074Z,99.90
2017-09-16T05:46:05.570Z,99.90
2017-09-16T05:48:33.071Z,99.90
2017-09-16T05:51:00.596Z,99.90
2017-09-16T05:53:28.863Z,99.90
2017-09-16T05:55:57.176Z,99.90
2017-09-16T05:58:24.670Z,99.90
2017-09-16T06:00:52.158Z,99.90
2017-09-16T06:03:19.756Z,99.90
2017-09-16T06:05:47.247Z,99.90
2017-09-16T06:08:14.743Z,99.90
2017-09-16T06:10:42.531Z,99.90
2017-09-16T06:13:10.027Z,99.90
2017-09-16T06:15:37.665Z,99.90
2017-09-16T06:18:05.215Z,99.90
2017-09-16T06:20:32.731Z,99.90
2017-09-16T06:23:01.508Z,99.90
2017-09-16T06:25:29.031Z,99.90
2017-09-16T06:27:56.530Z,99.90
2017-09-16T06:30:24.076Z,99.90
2017-09-16T06:32:51.596Z,99.90
2017-09-16T06:35:19.227Z,99.90
2017-09-16T06:37:47.115Z,99.90
2017-09-16T06:40:14.622Z,99.90
2017-09-16T06:42:42.111Z,99.90
2017-09-16T06:45:10.714Z,99.90
2017-09-16T06:47:38.235Z,99.90
2017-09-16T06:50:05.735Z,99.90
2017-09-16T06:52:33.367Z,99.90
2017-09-16T06:55:01.639Z,99.90
2017-09-16T06:57:29.999Z,99.90
2017-09-16T06:59:57.655Z,99.90
2017-09-16T07:02:25.162Z,99.90
2017-09-16T07:04:52.738Z,99.90
2017-09-16T07:07:20.579Z,99.90
2017-09-16T07:09:48.351Z,99.90
2017-09-16T07:12:15.871Z,99.90
2017-09-16T07:14:43.434Z,99.90
2017-09-16T07:17:10.931Z,99.90
2017-09-16T07:19:38.427Z,99.90
2017-09-16T07:22:06.347Z,99.90
2017-09-16T07:24:34.632Z,99.90
2017-09-16T07:27:02.123Z,99.90
2017-09-16T07:29:29.702Z,99.90
2017-09-16T07:31:57.287Z,99.90
2017-09-16T07:34:24.795Z,99.90
2017-09-16T07:36:52.683Z,99.90
2017-09-16T07:39:21.066Z,99.90
2017-09-16T07:41:48.566Z,99.90
2017-09-16T07:44:16.159Z,99.90
2017-09-16T07:46:43.674Z,99.90
2017-09-16T07:49:11.183Z,99.90
2017-09-16T07:51:38.779Z,99.90
2017-09-16T07:54:06.662Z,99.90
2017-09-16T07:56:34.560Z,99.90
2017-09-16T07:59:02.483Z,99.90
2017-09-16T08:01:30.075Z,99.90
2017-09-16T08:03:58.383Z,99.90
2017-09-16T08:06:26.235Z,99.90
2017-09-16T08:08:54.101Z,99.90
2017-09-16T08:11:22.054Z,99.90
2017-09-16T08:13:51.550Z,99.90
2017-09-16T08:16:19.687Z,99.90
2017-09-16T08:18:48.537Z,99.90
2017-09-16T08:21:16.532Z,99.90
2017-09-16T08:23:44.106Z,99.90
2017-09-16T08:26:11.611Z,99.90
2017-09-16T08:28:39.718Z,99.90
2017-09-16T08:31:07.754Z,99.90
2017-09-16T08:33:35.282Z,99.90
2017-09-16T08:36:03.062Z,99.90
2017-09-16T08:38:30.566Z,99.90
2017-09-16T08:40:58.059Z,99.90
2017-09-16T08:43:25.622Z,99.90
2017-09-16T08:45:53.318Z,99.90
2017-09-16T08:48:20.828Z,99.90
2017-09-16T08:50:48.783Z,99.90
2017-09-16T08:53:16.319Z,99.90
2017-09-16T08:55:43.818Z,99.90
2017-09-16T08:58:11.703Z,99.90
2017-09-16T09:00:39.204Z,99.90
2017-09-16T09:03:06.735Z,99.90
2017-09-16T09:05:34.650Z,99.90
2017-09-16T09:08:02.190Z,99.90
2017-09-16T09:10:29.830Z,99.90
2017-09-16T09:12:58.176Z,99.90
2017-09-16T09:15:25.685Z,99.90
2017-09-16T09:17:53.206Z,99.90
2017-09-16T09:20:21.298Z,99.40
2017-09-16T09:22:48.806Z,97.30
2017-09-16T09:25:16.305Z,95.40
2017-09-16T09:27:44.212Z,95.30
2017-09-16T09:30:11.753Z,94.80
2017-09-16T09:32:39.398Z,93.10
2017-09-16T09:35:07.714Z,94.00
2017-09-16T09:37:36.143Z,94.30
2017-09-16T09:40:03.640Z,92.80
2017-09-16T09:42:31.182Z,92.30
2017-09-16T09:44:58.764Z,93.50
2017-09-16T09:47:26.342Z,94.10
2017-09-16T09:49:54.073Z,95.60
2017-09-16T09:52:21.599Z,95.50
2017-09-16T09:54:49.119Z,94.80
2017-09-16T09:57:16.983Z,94.70
2017-09-16T09:59:44.505Z,92.60
2017-09-16T10:02:13.329Z,92.80
2017-09-16T10:04:41.255Z,92.10
2017-09-16T10:07:08.826Z,92.80
2017-09-16T10:09:36.410Z,92.10
2017-09-16T10:12:04.413Z,91.80
2017-09-16T10:14:31.939Z,90.60
2017-09-16T10:16:59.563Z,92.20
2017-09-16T10:19:27.146Z,91.50
2017-09-16T10:21:54.803Z,89.10
2017-09-16T10:24:23.439Z,91.40
2017-09-16T10:26:50.959Z,91.50
2017-09-16T10:29:18.475Z,91.30
2017-09-16T10:31:46.039Z,93.10
2017-09-16T10:34:14.002Z,90.10
2017-09-16T10:36:41.510Z,88.90
2017-09-16T10:39:09.721Z,86.70
2017-09-16T10:41:37.365Z,82.80
2017-09-16T10:44:04.867Z,87.50
2017-09-16T10:46:32.388Z,82.30
2017-09-16T10:48:59.920Z,83.50
2017-09-16T10:51:28.431Z,86.90
2017-09-16T10:53:55.932Z,87.60
2017-09-16T10:56:24.199Z,84.10
2017-09-16T10:58:52.202Z,84.10
2017-09-16T11:01:19.814Z,84.90
2017-09-16T11:03:48.189Z,87.40
2017-09-16T11:06:15.736Z,86.10
2017-09-16T11:08:43.310Z,83.20
2017-09-16T11:11:10.838Z,82.80
2017-09-16T11:13:38.399Z,79.80
2017-09-16T11:16:06.016Z,74.40
2017-09-16T11:18:33.578Z,67.70
2017-09-16T11:21:01.574Z,67.20
2017-09-16T11:23:29.079Z,65.60
2017-09-16T11:25:56.599Z,65.50
2017-09-16T11:28:24.148Z,69.00
2017-09-16T11:30:51.674Z,67.90
2017-09-16T11:33:19.179Z,69.60
2017-09-16T11:35:46.730Z,73.80
2017-09-16T11:38:14.603Z,73.70
2017-09-16T11:40:42.115Z,73.10
2017-09-16T11:43:09.686Z,69.40
2017-09-16T11:45:37.998Z,70.30
2017-09-16T11:48:05.602Z,66.20
2017-09-16T11:50:33.296Z,61.70
2017-09-16T11:53:00.838Z,64.00
2017-09-16T11:55:28.339Z,63.70
2017-09-16T11:57:56.167Z,58.80
2017-09-16T12:00:23.687Z,57.70
2017-09-16T12:02:51.329Z,55.10
2017-09-16T12:05:18.906Z,52.80
2017-09-16T12:07:46.486Z,49.80
2017-09-16T12:10:13.982Z,51.90
2017-09-16T12:12:41.590Z,52.60
2017-09-16T12:15:09.691Z,50.40
2017-09-16T12:17:37.183Z,49.30
2017-09-16T12:20:05.104Z,47.20
2017-09-16T12:22:32.615Z,47.70
2017-09-16T12:25:00.117Z,48.30
2017-09-16T12:27:28.342Z,47.80
2017-09-16T12:29:56.736Z,49.80
2017-09-16T12:32:24.279Z,49.60
2017-09-16T12:34:52.583Z,52.40
2017-09-16T12:37:20.100Z,52.40
2017-09-16T12:39:47.639Z,54.60
2017-09-16T12:42:15.580Z,56.60
2017-09-16T12:44:43.076Z,59.20
2017-09-16T12:47:10.651Z,58.90
2017-09-16T12:49:38.254Z,58.90
2017-09-16T12:52:05.794Z,59.90
2017-09-16T12:54:34.086Z,61.90
2017-09-16T12:57:01.640Z,62.40
2017-09-16T12:59:29.134Z,62.50
2017-09-16T13:01:56.635Z,62.30
2017-09-16T13:04:24.942Z,63.10
2017-09-16T13:06:52.595Z,63.00
2017-09-16T13:09:20.094Z,63.90
2017-09-16T13:11:47.927Z,66.00
2017-09-16T13:14:15.475Z,67.90
2017-09-16T13:16:42.970Z,68.90
2017-09-16T13:19:10.859Z,70.00
2017-09-16T13:21:38.387Z,72.10
2017-09-16T13:24:05.888Z,77.00
2017-09-16T13:26:33.951Z,77.70
2017-09-16T13:29:01.524Z,75.20
2017-09-16T13:31:29.037Z,77.00
2017-09-16T13:33:56.663Z,74.70
2017-09-16T13:36:24.159Z,77.00
2017-09-16T13:38:51.651Z,80.60
2017-09-16T13:41:19.199Z,80.80
2017-09-16T13:43:46.692Z,83.10
2017-09-16T13:46:14.970Z,86.60
2017-09-16T13:48:42.606Z,86.50
2017-09-16T13:51:10.105Z,87.80
2017-09-16T13:53:37.602Z,87.40
2017-09-16T13:56:05.835Z,90.10
2017-09-16T13:58:33.334Z,90.00
2017-09-16T14:01:01.023Z,90.40
2017-09-16T14:03:28.679Z,91.20
2017-09-16T14:05:56.225Z,89.60
2017-09-16T14:08:23.727Z,87.30
2017-09-16T14:10:51.368Z,88.80
2017-09-16T14:13:19.631Z,85.50
2017-09-16T14:15:47.172Z,85.30
2017-09-16T14:18:14.769Z,86.80
2017-09-16T14:20:42.288Z,88.40
2017-09-16T14:23:09.795Z,91.40
2017-09-16T14:25:37.606Z,92.90
2017-09-16T14:28:05.290Z,94.60
2017-09-16T14:30:32.799Z,96.20
2017-09-16T14:33:00.399Z,97.30
2017-09-16T14:35:27.902Z,97.60
2017-09-16T14:37:55.418Z,97.70
2017-09-16T14:40:23.114Z,99.50
2017-09-16T14:42:50.700Z,99.90
2017-09-16T14:45:18.199Z,99.90
2017-09-16T14:47:46.002Z,99.90
2017-09-16T14:50:13.598Z,99.90
2017-09-16T14:52:41.095Z,99.90
2017-09-16T14:55:08.674Z,99.90
2017-09-16T14:57:37.008Z,99.90
2017-09-16T15:00:04.595Z,99.90
2017-09-16T15:02:32.175Z,99.90
2017-09-16T15:04:59.682Z,99.90
2017-09-16T15:07:27.199Z,99.90
2017-09-16T15:09:55.635Z,99.90
2017-09-16T15:12:23.834Z,99.90
2017-09-16T15:14:51.326Z,99.90
2017-09-16T15:17:18.891Z,99.90
2017-09-16T15:19:46.390Z,99.90
2017-09-16T15:22:13.971Z,99.90
2017-09-16T15:24:42.729Z,99.90
2017-09-16T15:27:10.230Z,99.90
2017-09-16T15:29:37.772Z,99.90
2017-09-16T15:32:06.499Z,99.90
2017-09-16T15:34:34.074Z,99.90
2017-09-16T15:37:01.580Z,99.90
2017-09-16T15:39:29.143Z,99.90
2017-09-16T15:41:56.643Z,99.90
2017-09-16T15:44:24.871Z,99.90
2017-09-16T15:46:52.423Z,99.90
2017-09-16T15:49:19.918Z,99.90
2017-09-16T15:51:48.234Z,99.90
2017-09-16T15:54:16.583Z,99.90
2017-09-16T15:56:44.111Z,99.90
2017-09-16T15:59:11.626Z,99.90
2017-09-16T16:01:39.209Z,99.90
2017-09-16T16:04:06.868Z,99.90
2017-09-16T16:06:34.376Z,99.90
2017-09-16T16:09:01.931Z,99.90
2017-09-16T16:11:29.554Z,99.90
2017-09-16T16:13:57.059Z,99.90
2017-09-16T16:16:24.839Z,99.90
2017-09-16T16:18:52.339Z,99.90
2017-09-16T16:21:19.847Z,99.90
2017-09-16T16:23:47.463Z,99.90
2017-09-16T16:26:14.969Z,99.90
2017-09-16T16:28:42.587Z,99.90
2017-09-16T16:31:10.831Z,99.90
2017-09-16T16:33:38.360Z,99.90
2017-09-16T16:36:06.385Z,99.90
2017-09-16T16:38:34.208Z,99.90
2017-09-16T16:41:01.910Z,99.90
2017-09-16T16:43:29.432Z,99.90
2017-09-16T16:45:57.024Z,99.90
2017-09-16T16:48:24.531Z,99.90
2017-09-16T16:50:52.119Z,99.90
2017-09-16T16:53:19.673Z,99.90
2017-09-16T16:55:47.422Z,99.90
2017-09-16T16:58:14.923Z,99.90
2017-09-16T17:00:42.474Z,99.90
2017-09-16T17:03:09.983Z,99.90
2017-09-16T17:05:38.259Z,99.90
2017-09-16T17:08:05.860Z,99.90
2017-09-16T17:10:33.439Z,99.90
2017-09-16T17:13:01.023Z,99.90
2017-09-16T17:15:28.827Z,99.90
2017-09-16T17:17:56.347Z,99.90
2017-09-16T17:20:23.866Z,99.90
2017-09-16T17:22:51.545Z,99.90
2017-09-16T17:25:19.634Z,99.90
2017-09-16T17:27:47.134Z,99.90
2017-09-16T17:30:15.358Z,99.90
2017-09-16T17:32:42.854Z,99.90
2017-09-16T17:35:10.502Z,99.90
2017-09-16T17:37:38.071Z,99.90
2017-09-16T17:40:06.365Z,99.90
2017-09-16T17:42:33.927Z,99.90
2017-09-16T17:45:01.687Z,99.90
2017-09-16T17:47:29.199Z,99.90
2017-09-16T17:49:56.703Z,99.90
2017-09-16T17:52:24.408Z,99.90
2017-09-16T17:54:51.923Z,99.90
2017-09-16T17:57:19.559Z,99.90
2017-09-16T17:59:47.130Z,99.90
2017-09-16T18:02:14.651Z,99.90
2017-09-16T18:04:42.018Z,99.90
2017-09-16T18:07:09.586Z,99.90
2017-09-16T18:09:37.115Z,99.90
2017-09-16T18:12:04.614Z,99.90
2017-09-16T18:14:32.330Z,99.90
2017-09-16T18:16:59.843Z,99.90
2017-09-16T18:19:28.171Z,99.90
2017-09-16T18:21:55.884Z,99.90
2017-09-16T18:24:23.408Z,99.90
2017-09-16T18:26:50.927Z,99.90
2017-09-16T18:29:18.723Z,99.90
2017-09-16T18:31:46.279Z,99.90
2017-09-16T18:34:14.446Z,99.90
2017-09-16T18:36:42.259Z,99.90
2017-09-16T18:39:09.831Z,99.90
2017-09-16T18:41:38.212Z,99.90
2017-09-16T18:44:05.883Z,99.90
2017-09-16T18:46:33.380Z,99.90
2017-09-16T18:49:00.879Z,99.90
2017-09-16T18:51:28.642Z,99.90
2017-09-16T18:53:56.140Z,99.90
2017-09-16T18:56:23.798Z,99.90
2017-09-16T18:58:51.380Z,99.90
2017-09-16T19:01:19.642Z,99.90
2017-09-16T19:03:47.223Z,99.90
2017-09-16T19:06:15.106Z,99.90
2017-09-16T19:08:42.724Z,99.90
2017-09-16T19:11:10.238Z,99.90
2017-09-16T19:13:37.814Z,99.90
2017-09-16T19:16:05.327Z,99.90
2017-09-16T19:18:32.826Z,99.90
2017-09-16T19:21:01.499Z,99.90
2017-09-16T19:23:28.997Z,99.90
2017-09-16T19:25:56.492Z,99.90
2017-09-16T19:28:24.083Z,99.90
2017-09-16T19:30:51.632Z,99.90
2017-09-16T19:33:19.134Z,99.90
2017-09-16T19:35:46.896Z,99.90
2017-09-16T19:38:14.659Z,99.90
2017-09-16T19:40:42.939Z,99.90
2017-09-16T19:43:10.511Z,99.90
2017-09-16T19:45:38.810Z,99.90
2017-09-16T19:48:06.332Z,99.90
2017-09-16T19:50:34.052Z,99.90
2017-09-16T19:53:01.668Z,99.90
2017-09-16T19:55:29.265Z,99.90
2017-09-16T19:57:57.014Z,99.90
2017-09-16T20:00:24.519Z,99.90
2017-09-16T20:02:52.787Z,99.90
2017-09-16T20:05:20.366Z,99.90
2017-09-16T20:07:49.073Z,99.90
2017-09-16T20:10:16.574Z,99.90
2017-09-16T20:12:44.135Z,99.90
2017-09-16T20:15:11.648Z,99.90
2017-09-16T20:17:39.462Z,99.90
2017-09-16T20:20:07.490Z,99.90
2017-09-16T20:22:35.139Z,99.90
2017-09-16T20:25:02.642Z,99.90
2017-09-16T20:27:30.446Z,99.90
2017-09-16T20:29:58.783Z,99.90
2017-09-16T20:32:26.291Z,99.90
2017-09-16T20:34:53.860Z,99.90
2017-09-16T20:37:21.582Z,99.90
2017-09-16T20:39:49.172Z,99.90
2017-09-16T20:42:17.286Z,99.90
2017-09-16T20:44:44.846Z,99.90
2017-09-16T20:47:12.410Z,99.90
2017-09-16T20:49:39.924Z,99.90
2017-09-16T20:52:07.739Z,99.90
2017-09-16T20:54:35.355Z,99.90
2017-09-16T20:57:03.739Z,99.90
2017-09-16T20:59:31.291Z,99.90
2017-09-16T21:01:59.554Z,99.90
2017-09-16T21:04:27.822Z,99.90
2017-09-16T21:06:55.375Z,99.90
2017-09-16T21:09:22.874Z,99.90
2017-09-16T21:11:50.435Z,99.90
2017-09-16T21:14:17.982Z,99.90
2017-09-16T21:16:45.532Z,99.90
2017-09-16T21:19:14.066Z,99.90
2017-09-16T21:21:42.138Z,99.90
2017-09-16T21:24:09.716Z,99.90
2017-09-16T21:26:37.387Z,99.90
2017-09-16T21:29:04.961Z,99.90
2017-09-16T21:31:32.463Z,99.90
2017-09-16T21:34:00.065Z,99.90
2017-09-16T21:36:27.659Z,99.90
2017-09-16T21:38:55.927Z,99.90
2017-09-16T21:41:24.215Z,99.90
2017-09-16T21:43:51.846Z,99.90
2017-09-16T21:46:19.347Z,99.90
2017-09-16T21:48:46.858Z,99.90
2017-09-16T21:51:14.415Z,99.90
2017-09-16T21:53:41.915Z,99.90
2017-09-16T21:56:09.452Z,99.90
2017-09-16T21:58:37.135Z,99.90
2017-09-16T22:01:05.724Z,99.90
2017-09-16T22:03:33.655Z,99.90
2017-09-16T22:06:01.184Z,99.90
2017-09-16T22:08:28.867Z,99.90
2017-09-16T22:10:56.371Z,99.90
2017-09-16T22:13:23.935Z,99.90
2017-09-16T22:15:51.851Z,99.90
2017-09-16T22:18:19.350Z,99.90
2017-09-16T22:20:47.619Z,99.90
2017-09-16T22:23:16.218Z,99.90
2017-09-16T22:25:43.878Z,99.90
2017-09-16T22:28:11.450Z,99.90
2017-09-16T22:30:39.375Z,99.90
2017-09-16T22:33:06.875Z,99.90
2017-09-16T22:35:34.389Z,99.90
2017-09-16T22:38:02.203Z,99.90
2017-09-16T22:40:29.708Z,99.90
2017-09-16T22:42:57.374Z,99.90
2017-09-16T22:45:25.416Z,99.90
2017-09-16T22:47:52.911Z,99.90
2017-09-16T22:50:20.419Z,99.90
2017-09-16T22:52:48.034Z,99.90
2017-09-16T22:55:15.614Z,99.90
2017-09-16T22:57:43.124Z,99.90
2017-09-16T23:00:10.949Z,99.90
2017-09-16T23:02:38.515Z,99.90
2017-09-16T23:05:06.071Z,99.90
2017-09-16T23:07:34.464Z,99.90
2017-09-16T23:10:01.987Z,99.90
2017-09-16T23:12:29.495Z,99.90
2017-09-16T23:14:57.044Z,99.90
2017-09-16T23:17:24.555Z,99.90
2017-09-16T23:19:52.122Z,99.90
2017-09-16T23:22:20.687Z,99.90
2017-09-16T23:24:48.223Z,99.90
2017-09-16T23:27:15.742Z,99.90
2017-09-16T23:29:43.299Z,99.90
2017-09-16T23:32:10.882Z,99.90
2017-09-16T23:34:38.382Z,99.90
2017-09-16T23:37:06.404Z,99.90
2017-09-16T23:39:33.906Z,99.90
2017-09-16T23:42:01.416Z,99.90
2017-09-16T23:44:29.339Z,99.90
2017-09-16T23:46:56.926Z,99.90
2017-09-16T23:49:24.767Z,99.90
2017-09-16T23:51:53.607Z,99.90
2017-09-16T23:54:21.104Z,99.90
2017-09-16T23:56:48.603Z,99.90
2017-09-16T23:59:16.271Z,99.90
